Time;durP1;ratioP1;P1;durP2;ratioP2;P2;SDS_P1;SDS_P2;PMS_P1;PMS_P2;Temp;Humidity;BMP_temperature;BMP_pressure;BME280_temperature;BME280_humidity;BME280_pressure;Samples;Min_cycle;Max_cycle;Signal;HPM_P1;HPM_P2
2023/05/04 00:00:38;;;;;;;8.18;4.90;;;7.00;99.90;;;;;;5090190;28;20036;-78
2023/05/04 00:03:04;;;;;;;8.10;4.72;;;7.00;99.90;;;;;;5090335;28;20040;-78
2023/05/04 00:05:29;;;;;;;9.90;5.00;;;7.00;99.90;;;;;;5090317;28;20067;-78
2023/05/04 00:07:55;;;;;;;9.55;4.72;;;6.90;99.90;;;;;;5089357;28;20047;-78
2023/05/04 00:10:20;;;;;;;10.35;4.88;;;6.90;99.90;;;;;;5090372;28;20051;-79
2023/05/04 00:12:46;;;;;;;7.68;4.93;;;6.80;99.90;;;;;;5073338;28;20096;-79
2023/05/04 00:15:11;;;;;;;9.18;4.72;;;6.80;99.90;;;;;;5073252;28;20134;-78
2023/05/04 00:17:37;;;;;;;7.10;4.78;;;6.70;99.90;;;;;;5089758;28;20040;-78
2023/05/04 00:20:03;;;;;;;11.80;4.75;;;6.70;99.90;;;;;;5089851;28;20059;-79
2023/05/04 00:22:28;;;;;;;7.60;4.45;;;6.70;99.90;;;;;;5089672;28;20063;-78
2023/05/04 00:24:54;;;;;;;10.48;4.95;;;6.70;99.90;;;;;;5089983;28;20043;-79
2023/05/04 00:27:19;;;;;;;8.05;5.15;;;6.70;99.90;;;;;;5090070;28;20039;-78
2023/05/04 00:29:45;;;;;;;9.27;4.68;;;6.70;99.90;;;;;;5089701;28;20046;-78
2023/05/04 00:32:10;;;;;;;10.52;4.70;;;6.60;99.90;;;;;;5063063;28;20051;-78
2023/05/04 00:34:36;;;;;;;6.70;4.57;;;6.60;99.90;;;;;;5085777;28;20515;-77
2023/05/04 00:37:01;;;;;;;7.40;4.50;;;6.60;99.90;;;;;;5090820;28;20043;-78
2023/05/04 00:39:27;;;;;;;10.70;4.90;;;6.60;99.90;;;;;;5093944;28;20064;-78
2023/05/04 00:41:52;;;;;;;7.47;4.75;;;6.60;99.90;;;;;;5094405;28;20036;-78
2023/05/04 00:44:19;;;;;;;10.82;4.60;;;6.50;99.90;;;;;;5094001;28;20043;-78
2023/05/04 00:46:45;;;;;;;10.18;5.20;;;6.50;99.90;;;;;;5058780;28;20033;-78
2023/05/04 00:49:11;;;;;;;8.00;4.97;;;6.50;99.90;;;;;;5073700;28;20040;-79
2023/05/04 00:51:36;;;;;;;8.15;4.82;;;6.40;99.90;;;;;;5089992;28;20250;-79
2023/05/04 00:54:03;;;;;;;7.60;4.70;;;6.30;99.90;;;;;;5094022;28;20387;-78
2023/05/04 00:56:29;;;;;;;8.60;4.72;;;6.30;99.90;;;;;;5104067;28;20498;-78
2023/05/04 00:58:57;;;;;;;8.98;4.70;;;6.30;99.90;;;;;;5097119;28;20119;-78
2023/05/04 01:01:23;;;;;;;6.97;4.82;;;6.20;99.90;;;;;;5093673;28;20034;-79
2023/05/04 01:03:50;;;;;;;15.35;5.32;;;6.20;99.90;;;;;;5093772;28;20040;-79
2023/05/04 01:06:30;;;;;;;9.15;4.85;;;6.10;99.90;;;;;;5093446;28;20028;-78
2023/05/04 01:09:26;;;;;;;8.63;4.80;;;6.10;99.90;;;;;;5062478;28;20442;-77
2023/05/04 01:12:03;;;;;;;9.88;5.05;;;6.10;99.90;;;;;;5093540;28;20051;-78
2023/05/04 01:14:29;;;;;;;9.18;5.00;;;6.10;99.90;;;;;;5093246;28;20040;-79
2023/05/04 01:16:59;;;;;;;8.48;5.07;;;6.00;99.90;;;;;;5093201;28;20032;-78
2023/05/04 01:19:26;;;;;;;8.68;5.10;;;6.00;99.90;;;;;;5062091;28;20039;-80
2023/05/04 01:21:52;;;;;;;10.13;5.30;;;6.00;99.90;;;;;;5093290;28;20032;-79
2023/05/04 01:24:18;;;;;;;9.95;5.03;;;5.90;99.90;;;;;;5093329;28;20032;-78
2023/05/04 01:26:47;;;;;;;9.38;5.53;;;5.90;99.90;;;;;;5093434;28;20453;-78
2023/05/04 01:29:23;;;;;;;9.18;5.32;;;5.90;99.90;;;;;;5093330;28;20446;-77
2023/05/04 01:31:49;;;;;;;8.73;5.25;;;5.90;99.90;;;;;;5093080;28;20036;-77
2023/05/04 01:34:16;;;;;;;10.13;5.68;;;5.80;99.90;;;;;;5093032;28;20067;-78
2023/05/04 01:36:43;;;;;;;8.13;5.25;;;5.90;99.90;;;;;;5093169;28;20490;-78
2023/05/04 01:39:09;;;;;;;12.35;6.03;;;5.80;99.90;;;;;;5109855;28;20040;-77
2023/05/04 01:41:35;;;;;;;10.23;6.00;;;5.90;99.90;;;;;;5092719;28;20084;-78
2023/05/04 01:44:01;;;;;;;9.98;6.55;;;5.90;99.90;;;;;;5092929;28;20115;-78
2023/05/04 01:46:27;;;;;;;11.18;5.85;;;5.90;99.90;;;;;;5092618;28;20051;-77
2023/05/04 01:48:52;;;;;;;9.00;5.63;;;5.90;99.90;;;;;;5092524;28;20040;-77
2023/05/04 01:51:18;;;;;;;10.15;5.63;;;6.00;99.90;;;;;;5092768;28;20131;-77
2023/05/04 01:53:44;;;;;;;10.90;5.65;;;5.90;99.90;;;;;;5092388;28;20035;-78
2023/05/04 01:56:09;;;;;;;11.90;5.57;;;5.90;99.90;;;;;;5100213;28;20043;-79
2023/05/04 01:58:35;;;;;;;11.65;5.68;;;6.00;99.90;;;;;;5098805;28;20052;-78
2023/05/04 02:01:00;;;;;;;10.50;5.38;;;5.90;99.90;;;;;;5092431;28;20062;-77
2023/05/04 02:03:26;;;;;;;8.90;5.05;;;5.90;99.90;;;;;;5092424;28;20036;-78
2023/05/04 02:05:52;;;;;;;9.13;5.55;;;5.90;99.90;;;;;;5075763;28;20036;-77
2023/05/04 02:08:18;;;;;;;12.38;5.93;;;5.90;99.90;;;;;;5092338;28;20101;-78
2023/05/04 02:10:43;;;;;;;9.82;5.68;;;5.90;99.90;;;;;;5092413;28;20078;-78
2023/05/04 02:13:09;;;;;;;9.30;5.53;;;5.90;99.90;;;;;;5092276;28;20137;-77
2023/05/04 02:15:35;;;;;;;8.50;5.15;;;5.80;99.90;;;;;;5078864;28;20396;-77
2023/05/04 02:18:00;;;;;;;8.20;5.45;;;5.90;99.90;;;;;;5091397;28;20112;-77
2023/05/04 02:20:26;;;;;;;11.73;5.82;;;5.80;99.90;;;;;;5092012;28;20036;-78
2023/05/04 02:22:51;;;;;;;9.38;5.30;;;5.90;99.90;;;;;;5092218;28;20040;-78
2023/05/04 02:25:17;;;;;;;8.05;5.32;;;5.80;99.90;;;;;;5092238;28;20052;-77
2023/05/04 02:27:42;;;;;;;7.30;4.55;;;5.80;99.90;;;;;;5091741;28;20048;-78
2023/05/04 02:30:08;;;;;;;7.03;4.78;;;5.80;99.90;;;;;;5092168;28;20044;-77
2023/05/04 02:32:35;;;;;;;10.40;5.60;;;5.80;99.90;;;;;;5091802;28;20040;-78
2023/05/04 02:35:00;;;;;;;8.30;4.93;;;5.80;99.90;;;;;;5091777;28;20079;-77
2023/05/04 02:37:26;;;;;;;9.32;5.05;;;5.80;99.90;;;;;;5091580;28;20093;-78
2023/05/04 02:39:52;;;;;;;10.73;5.60;;;5.80;99.90;;;;;;5091726;28;20036;-77
2023/05/04 02:42:17;;;;;;;10.45;5.35;;;5.80;99.90;;;;;;5091791;28;20119;-78
2023/05/04 02:44:43;;;;;;;9.52;5.80;;;5.80;99.90;;;;;;5075138;28;20043;-76
2023/05/04 02:47:09;;;;;;;8.90;5.90;;;5.80;99.90;;;;;;5091686;28;20111;-77
2023/05/04 02:49:34;;;;;;;11.00;5.63;;;5.80;99.90;;;;;;5091675;28;20077;-78
2023/05/04 02:52:00;;;;;;;7.93;4.93;;;5.80;99.90;;;;;;5091537;28;20032;-77
2023/05/04 02:54:25;;;;;;;12.35;6.00;;;5.80;99.90;;;;;;5091422;28;20089;-77
2023/05/04 02:56:51;;;;;;;11.55;5.63;;;5.80;99.90;;;;;;5104657;28;20099;-77
2023/05/04 02:59:16;;;;;;;9.32;5.30;;;5.80;99.90;;;;;;5074788;28;20457;-80
2023/05/04 03:01:42;;;;;;;8.68;5.38;;;5.80;99.90;;;;;;5091296;28;20456;-79
2023/05/04 03:04:07;;;;;;;10.45;5.40;;;5.80;99.90;;;;;;5091226;28;20085;-79
2023/05/04 03:06:33;;;;;;;11.13;5.72;;;5.90;99.90;;;;;;5091256;28;20066;-79
2023/05/04 03:08:58;;;;;;;9.93;6.07;;;5.80;99.90;;;;;;5059889;28;20119;-79
2023/05/04 03:11:24;;;;;;;10.57;6.18;;;5.80;99.90;;;;;;5067233;28;20036;-79
2023/05/04 03:13:50;;;;;;;11.93;5.40;;;5.80;99.90;;;;;;5070897;28;20055;-78
2023/05/04 03:16:16;;;;;;;11.65;5.43;;;5.90;99.90;;;;;;5090213;28;20402;-77
2023/05/04 03:18:41;;;;;;;9.77;5.65;;;5.90;99.90;;;;;;5090705;28;20093;-79
2023/05/04 03:21:07;;;;;;;8.45;5.32;;;5.90;99.90;;;;;;5090910;28;20035;-77
2023/05/04 03:23:32;;;;;;;8.93;5.80;;;6.00;99.90;;;;;;5090801;28;20036;-79
2023/05/04 03:25:58;;;;;;;9.35;5.80;;;6.00;99.90;;;;;;5090777;28;20036;-79
2023/05/04 03:28:24;;;;;;;9.57;5.82;;;6.00;99.90;;;;;;5090767;28;20047;-77
2023/05/04 03:30:49;;;;;;;8.18;5.53;;;6.10;99.90;;;;;;5060932;28;20044;-77
2023/05/04 03:33:15;;;;;;;11.50;5.65;;;6.00;99.90;;;;;;5089919;28;20032;-77
2023/05/04 03:35:40;;;;;;;11.30;6.00;;;6.00;99.90;;;;;;5090663;28;20047;-75
2023/05/04 03:38:06;;;;;;;12.35;6.18;;;6.10;99.90;;;;;;5090289;28;20127;-77
2023/05/04 03:40:35;;;;;;;10.00;6.13;;;6.10;99.90;;;;;;5090533;28;20071;-76
2023/05/04 03:43:01;;;;;;;11.13;5.82;;;6.10;99.90;;;;;;5107363;28;20531;-75
2023/05/04 03:45:27;;;;;;;9.88;5.80;;;6.10;99.90;;;;;;5090509;28;20238;-76
2023/05/04 03:47:56;;;;;;;10.30;5.72;;;6.20;99.90;;;;;;5090436;28;20044;-76
2023/05/04 03:50:22;;;;;;;10.60;5.85;;;6.20;99.90;;;;;;5090406;28;20039;-76
2023/05/04 03:52:48;;;;;;;8.80;5.85;;;6.20;99.90;;;;;;5090279;28;20050;-77
2023/05/04 03:55:14;;;;;;;10.32;5.63;;;6.20;99.90;;;;;;5090138;28;20097;-76
2023/05/04 03:57:40;;;;;;;11.50;5.65;;;6.20;99.90;;;;;;5104355;28;20040;-74
2023/05/04 04:00:06;;;;;;;9.40;5.97;;;6.20;99.90;;;;;;5107094;28;20408;-76
2023/05/04 04:02:32;;;;;;;11.30;6.03;;;6.20;99.90;;;;;;5090047;28;20080;-75
2023/05/04 04:04:58;;;;;;;8.73;5.82;;;6.30;99.90;;;;;;5090203;28;20032;-75
2023/05/04 04:07:23;;;;;;;12.80;6.45;;;6.30;99.90;;;;;;5090139;28;20128;-75
2023/05/04 04:09:49;;;;;;;9.65;5.55;;;6.40;99.90;;;;;;5090068;28;20048;-75
2023/05/04 04:12:19;;;;;;;10.25;6.00;;;6.30;99.90;;;;;;5089445;28;20136;-74
2023/05/04 04:14:47;;;;;;;9.93;5.93;;;6.30;99.90;;;;;;5089931;28;20115;-75
2023/05/04 04:17:13;;;;;;;11.70;5.90;;;6.30;99.90;;;;;;5090175;28;20434;-74
2023/05/04 04:19:38;;;;;;;11.52;6.22;;;6.40;99.90;;;;;;5089809;28;20086;-74
2023/05/04 04:22:04;;;;;;;10.90;6.30;;;6.30;99.90;;;;;;5090009;28;20403;-75
2023/05/04 04:24:30;;;;;;;10.02;5.60;;;6.30;99.90;;;;;;5089820;28;20040;-75
2023/05/04 04:26:56;;;;;;;9.68;5.85;;;6.30;99.90;;;;;;5090031;28;20044;-75
2023/05/04 04:29:21;;;;;;;11.25;5.57;;;6.30;99.90;;;;;;5089651;28;20040;-75
2023/05/04 04:31:47;;;;;;;8.73;5.97;;;6.30;99.90;;;;;;5089833;28;20074;-75
2023/05/04 04:34:12;;;;;;;13.95;5.90;;;6.30;99.90;;;;;;5089850;28;20100;-75
2023/05/04 04:36:39;;;;;;;11.10;5.90;;;6.30;99.90;;;;;;5089602;28;20403;-75
2023/05/04 04:39:04;;;;;;;9.77;5.53;;;6.30;99.90;;;;;;5089557;28;20051;-74
2023/05/04 04:41:30;;;;;;;9.38;5.95;;;6.30;99.90;;;;;;5089651;28;20040;-75
2023/05/04 04:43:56;;;;;;;11.18;5.25;;;6.40;99.90;;;;;;5089692;28;20447;-76
2023/05/04 04:46:21;;;;;;;12.52;6.07;;;6.30;99.90;;;;;;5089924;28;20523;-74
2023/05/04 04:48:48;;;;;;;9.77;5.32;;;6.40;99.90;;;;;;5089493;28;20040;-75
2023/05/04 04:51:13;;;;;;;8.45;5.47;;;6.40;99.90;;;;;;5060029;28;20066;-75
2023/05/04 04:53:39;;;;;;;9.45;5.50;;;6.40;99.90;;;;;;5069309;28;20040;-76
2023/05/04 04:56:06;;;;;;;10.02;5.43;;;6.40;99.90;;;;;;5087329;28;20035;-76
2023/05/04 04:58:32;;;;;;;13.48;5.88;;;6.40;99.90;;;;;;5096629;28;20044;-75
2023/05/04 05:00:58;;;;;;;9.05;5.40;;;6.40;99.90;;;;;;5089523;28;20120;-75
2023/05/04 05:03:24;;;;;;;9.32;5.60;;;6.50;99.90;;;;;;5089906;28;20043;-76
2023/05/04 05:05:49;;;;;;;11.25;5.63;;;6.50;99.90;;;;;;5089472;28;20040;-74
2023/05/04 05:08:15;;;;;;;12.80;5.93;;;6.60;99.90;;;;;;5089357;28;20047;-75
2023/05/04 05:10:41;;;;;;;12.93;5.60;;;6.60;99.90;;;;;;5089705;28;20507;-76
2023/05/04 05:13:07;;;;;;;13.13;5.80;;;6.60;99.90;;;;;;5089591;28;20044;-75
2023/05/04 05:15:33;;;;;;;8.35;5.72;;;6.60;99.90;;;;;;5089510;28;20036;-75
2023/05/04 05:17:58;;;;;;;12.90;5.93;;;6.70;99.90;;;;;;5089196;28;20564;-76
2023/05/04 05:20:24;;;;;;;10.98;5.93;;;6.70;99.90;;;;;;5089269;28;20055;-75
2023/05/04 05:22:50;;;;;;;10.82;6.20;;;6.70;99.90;;;;;;5090432;28;20054;-74
2023/05/04 05:25:17;;;;;;;12.63;5.72;;;6.80;99.90;;;;;;5093312;28;20096;-76
2023/05/04 05:27:43;;;;;;;9.68;5.97;;;6.80;99.90;;;;;;5093137;28;20044;-77
2023/05/04 05:30:10;;;;;;;12.93;6.28;;;6.90;99.90;;;;;;5093069;28;20415;-75
2023/05/04 05:32:36;;;;;;;12.45;6.30;;;6.90;99.90;;;;;;5093046;28;20040;-76
2023/05/04 05:35:03;;;;;;;8.85;5.63;;;7.00;99.90;;;;;;5092828;28;20036;-75
2023/05/04 05:37:29;;;;;;;9.98;6.47;;;6.90;99.90;;;;;;5092826;28;20040;-75
2023/05/04 05:39:54;;;;;;;11.93;5.90;;;7.00;99.90;;;;;;5092652;28;20058;-75
2023/05/04 05:42:20;;;;;;;11.90;6.20;;;7.10;99.90;;;;;;5092883;28;20070;-74
2023/05/04 05:44:45;;;;;;;10.10;5.45;;;7.10;99.90;;;;;;5092690;28;20511;-75
2023/05/04 05:47:11;;;;;;;9.95;5.28;;;7.20;99.90;;;;;;5093067;28;20040;-75
2023/05/04 05:49:36;;;;;;;9.20;5.70;;;7.20;99.90;;;;;;5092527;28;20046;-76
2023/05/04 05:52:02;;;;;;;14.43;6.07;;;7.20;99.90;;;;;;5093467;28;20050;-76
2023/05/04 05:54:33;;;;;;;11.18;5.93;;;7.30;99.90;;;;;;5092463;28;20063;-77
2023/05/04 05:56:59;;;;;;;10.77;5.82;;;7.20;99.90;;;;;;5106559;28;20046;-78
2023/05/04 05:59:24;;;;;;;12.77;5.30;;;7.40;99.90;;;;;;5092496;28;20032;-77
2023/05/04 06:01:50;;;;;;;12.30;6.20;;;7.50;99.90;;;;;;5092480;28;20036;-77
2023/05/04 06:04:15;;;;;;;9.55;5.72;;;7.50;99.90;;;;;;5092609;28;20028;-76
2023/05/04 06:06:41;;;;;;;12.20;5.78;;;7.60;99.90;;;;;;5092491;28;20050;-75
2023/05/04 06:09:06;;;;;;;12.07;5.97;;;7.70;99.90;;;;;;5092099;28;20058;-75
2023/05/04 06:11:32;;;;;;;12.57;6.20;;;7.80;99.90;;;;;;5092535;28;20047;-74
2023/05/04 06:13:57;;;;;;;10.82;5.78;;;7.90;99.90;;;;;;5092133;28;20040;-75
2023/05/04 06:16:23;;;;;;;12.80;5.95;;;8.00;99.90;;;;;;5092428;28;20036;-74
2023/05/04 06:18:48;;;;;;;13.68;6.90;;;8.10;99.90;;;;;;5091795;28;20052;-74
2023/05/04 06:21:14;;;;;;;12.07;6.45;;;8.20;99.90;;;;;;5092080;28;20024;-74
2023/05/04 06:23:40;;;;;;;11.05;6.20;;;8.20;99.90;;;;;;5091956;28;20107;-74
2023/05/04 06:26:06;;;;;;;11.50;5.78;;;8.20;99.90;;;;;;5091997;28;20440;-74
2023/05/04 06:28:33;;;;;;;12.25;5.70;;;8.30;99.90;;;;;;5092740;28;20405;-74
2023/05/04 06:30:58;;;;;;;10.27;5.90;;;8.40;99.90;;;;;;5092163;28;20083;-75
2023/05/04 06:33:24;;;;;;;11.98;6.07;;;8.50;99.90;;;;;;5092142;28;20036;-75
2023/05/04 06:35:51;;;;;;;12.30;6.43;;;8.60;99.90;;;;;;5091255;28;20055;-75
2023/05/04 06:38:17;;;;;;;13.23;5.97;;;8.70;99.90;;;;;;5091471;28;20036;-76
2023/05/04 06:40:42;;;;;;;10.35;6.07;;;8.70;99.90;;;;;;5091711;28;20462;-75
2023/05/04 06:43:08;;;;;;;8.48;5.90;;;8.80;99.90;;;;;;5091611;28;20043;-75
2023/05/04 06:45:36;;;;;;;10.13;6.10;;;8.90;99.90;;;;;;5091718;28;20101;-75
2023/05/04 06:48:03;;;;;;;11.45;5.85;;;9.00;99.90;;;;;;5091434;28;20058;-76
2023/05/04 06:50:29;;;;;;;10.25;5.93;;;9.10;99.90;;;;;;5091998;28;20456;-75
2023/05/04 06:53:07;;;;;;;10.77;6.20;;;9.20;99.90;;;;;;5091832;28;20338;-75
2023/05/04 06:55:32;;;;;;;8.93;5.93;;;9.40;99.90;;;;;;5093646;28;20067;-75
2023/05/04 06:57:58;;;;;;;13.27;6.60;;;9.40;99.90;;;;;;5086374;28;20067;-75
2023/05/04 07:00:24;;;;;;;9.45;5.82;;;9.50;99.90;;;;;;5091077;28;20407;-75
2023/05/04 07:02:51;;;;;;;13.52;5.95;;;9.60;99.90;;;;;;5091318;28;20032;-76
2023/05/04 07:05:17;;;;;;;11.15;6.20;;;9.60;99.90;;;;;;5074464;28;20136;-75
2023/05/04 07:07:42;;;;;;;8.88;5.93;;;9.80;99.90;;;;;;5091116;28;20115;-74
2023/05/04 07:10:09;;;;;;;10.45;6.00;;;10.00;99.90;;;;;;5091272;28;20135;-74
2023/05/04 07:12:34;;;;;;;10.38;5.90;;;10.10;99.90;;;;;;5060108;28;20116;-75
2023/05/04 07:15:00;;;;;;;12.48;5.57;;;10.20;99.90;;;;;;5090923;28;20040;-75
2023/05/04 07:17:26;;;;;;;11.30;5.57;;;10.30;99.90;;;;;;5090708;28;20040;-75
2023/05/04 07:19:52;;;;;;;10.02;6.05;;;10.30;99.90;;;;;;5067536;28;20040;-76
2023/05/04 07:22:19;;;;;;;10.13;5.80;;;10.40;99.90;;;;;;5083495;28;20054;-75
2023/05/04 07:24:45;;;;;;;9.45;5.50;;;10.40;99.90;;;;;;5091199;28;20040;-75
2023/05/04 07:27:11;;;;;;;12.05;6.28;;;10.40;99.90;;;;;;5091091;28;20047;-76
2023/05/04 07:29:36;;;;;;;11.70;6.10;;;10.40;99.90;;;;;;5090459;28;20040;-74
2023/05/04 07:32:02;;;;;;;9.35;5.53;;;10.40;99.90;;;;;;5090807;28;20044;-75
2023/05/04 07:34:27;;;;;;;10.23;5.65;;;10.40;99.90;;;;;;5090940;28;20136;-75
2023/05/04 07:36:53;;;;;;;10.35;5.90;;;10.50;99.90;;;;;;5090571;28;20043;-74
2023/05/04 07:39:18;;;;;;;11.98;5.93;;;10.50;99.90;;;;;;5090563;28;20706;-75
2023/05/04 07:41:44;;;;;;;13.07;5.68;;;10.60;99.90;;;;;;5090547;28;20066;-76
2023/05/04 07:44:10;;;;;;;13.50;6.20;;;10.60;99.90;;;;;;5073600;28;20119;-76
2023/05/04 07:46:37;;;;;;;12.93;6.22;;;10.70;99.90;;;;;;5090273;28;20138;-76
2023/05/04 07:49:03;;;;;;;10.05;6.00;;;10.90;99.90;;;;;;5090380;28;20040;-75
2023/05/04 07:51:28;;;;;;;11.65;5.53;;;10.90;99.90;;;;;;5090563;28;20040;-76
2023/05/04 07:53:54;;;;;;;14.05;6.55;;;11.10;99.90;;;;;;5090252;28;20058;-76
2023/05/04 07:56:20;;;;;;;12.88;5.93;;;11.20;99.90;;;;;;5099393;28;20398;-76
2023/05/04 07:58:46;;;;;;;10.00;5.93;;;11.30;99.90;;;;;;5095007;28;20083;-75
2023/05/04 08:01:11;;;;;;;12.00;5.85;;;11.30;99.90;;;;;;5090393;28;20118;-77
2023/05/04 08:03:37;;;;;;;10.77;5.90;;;11.40;99.90;;;;;;5090253;28;20044;-76
2023/05/04 08:06:02;;;;;;;9.48;6.30;;;11.50;99.90;;;;;;5090261;28;20032;-77
2023/05/04 08:08:28;;;;;;;8.93;5.82;;;11.50;99.90;;;;;;5089902;28;20044;-76
2023/05/04 08:10:53;;;;;;;10.18;6.15;;;11.50;99.90;;;;;;5090045;28;20059;-77
2023/05/04 08:13:19;;;;;;;11.40;5.70;;;11.70;99.90;;;;;;5090420;28;20067;-77
2023/05/04 08:15:45;;;;;;;10.73;5.95;;;11.80;99.90;;;;;;5090299;28;20051;-78
2023/05/04 08:18:10;;;;;;;11.23;6.65;;;12.00;99.90;;;;;;5089885;28;20036;-77
2023/05/04 08:20:36;;;;;;;13.05;6.47;;;12.10;99.90;;;;;;5090102;28;20047;-78
2023/05/04 08:23:02;;;;;;;10.45;5.63;;;12.20;99.90;;;;;;5073185;28;20064;-78
2023/05/04 08:25:28;;;;;;;9.75;5.50;;;12.30;99.90;;;;;;5091020;28;20062;-78
2023/05/04 08:27:54;;;;;;;11.15;5.80;;;12.50;99.90;;;;;;5090024;28;20503;-79
2023/05/04 08:30:19;;;;;;;10.32;5.57;;;12.60;99.90;;;;;;5090349;28;20096;-79
2023/05/04 08:32:45;;;;;;;11.32;6.05;;;12.70;99.90;;;;;;5090205;28;20039;-78
2023/05/04 08:35:10;;;;;;;11.52;6.13;;;12.80;99.90;;;;;;5090354;28;20085;-78
2023/05/04 08:37:36;;;;;;;11.80;5.72;;;13.00;99.90;;;;;;5090931;28;20052;-79
2023/05/04 08:40:03;;;;;;;10.27;5.78;;;13.10;99.90;;;;;;5091197;28;20040;-78
2023/05/04 08:42:30;;;;;;;10.15;6.18;;;13.30;99.90;;;;;;5108301;28;20032;-79
2023/05/04 08:44:57;;;;;;;12.48;6.28;;;13.30;99.90;;;;;;5091211;28;20036;-80
2023/05/04 08:47:24;;;;;;;10.40;5.72;;;13.40;99.90;;;;;;5090921;28;20043;-79
2023/05/04 08:49:51;;;;;;;10.25;5.82;;;13.40;99.90;;;;;;5091491;28;20039;-80
2023/05/04 08:52:18;;;;;;;10.25;5.70;;;13.50;99.90;;;;;;5091470;28;20507;-80
2023/05/04 08:54:45;;;;;;;10.80;5.93;;;13.60;99.90;;;;;;5092372;28;20442;-80
2023/05/04 08:57:11;;;;;;;10.52;5.97;;;13.80;99.90;;;;;;5084923;28;20063;-81
2023/05/04 08:59:37;;;;;;;9.45;5.85;;;13.90;99.90;;;;;;5095072;28;20046;-80
2023/05/04 09:02:03;;;;;;;10.80;5.70;;;14.00;99.90;;;;;;5095693;28;20089;-79
2023/05/04 09:04:29;;;;;;;12.40;5.50;;;14.00;99.90;;;;;;5095600;28;20036;-80
2023/05/04 09:06:56;;;;;;;10.63;5.75;;;14.00;99.90;;;;;;5095464;28;20399;-77
2023/05/04 09:09:23;;;;;;;10.50;5.90;;;14.00;99.90;;;;;;5095855;28;20036;-81
2023/05/04 09:11:49;;;;;;;11.75;5.82;;;14.00;99.90;;;;;;5096379;28;20127;-81
2023/05/04 09:14:14;;;;;;;10.57;5.32;;;14.10;99.90;;;;;;5065011;28;20071;-79
2023/05/04 09:16:40;;;;;;;9.45;5.50;;;14.10;99.90;;;;;;5095163;28;20073;-79
2023/05/04 09:19:19;;;;;;;10.00;5.20;;;14.20;99.90;;;;;;5094732;28;20119;-81
2023/05/04 09:21:46;;;;;;;12.15;5.65;;;14.30;99.90;;;;;;5094487;28;20077;-79
2023/05/04 09:24:11;;;;;;;9.13;4.95;;;14.40;99.90;;;;;;5095945;28;20094;-81
2023/05/04 09:26:38;;;;;;;7.43;5.10;;;14.50;99.90;;;;;;5095304;28;20032;-80
2023/05/04 09:29:14;;;;;;;10.07;4.93;;;14.60;99.90;;;;;;5094453;28;20047;-79
2023/05/04 09:31:48;;;;;;;11.68;5.50;;;14.60;99.90;;;;;;5094583;28;20120;-78
2023/05/04 09:34:14;;;;;;;6.53;4.93;;;14.80;99.90;;;;;;5095498;28;20093;-77
2023/05/04 09:36:43;;;;;;;8.23;5.03;;;14.80;99.90;;;;;;5080177;28;20028;-80
2023/05/04 09:39:13;;;;;;;11.20;7.47;;;14.90;99.90;;;;;;5094712;28;20044;-79
2023/05/04 09:41:39;;;;;;;8.05;5.60;;;14.90;99.90;;;;;;5094580;28;20036;-81
2023/05/04 09:44:05;;;;;;;9.55;5.03;;;14.80;99.90;;;;;;5096447;28;20036;-80
2023/05/04 09:46:31;;;;;;;8.85;5.47;;;14.80;99.90;;;;;;5063328;28;20044;-81
2023/05/04 09:48:56;;;;;;;6.88;4.93;;;14.80;99.90;;;;;;5095010;28;20043;-79
2023/05/04 09:51:24;;;;;;;8.93;5.13;;;14.90;99.90;;;;;;5094266;28;20092;-80
2023/05/04 09:53:50;;;;;;;8.38;4.80;;;15.00;99.90;;;;;;5093838;28;20122;-79
2023/05/04 09:56:19;;;;;;;7.00;5.15;;;15.20;99.90;;;;;;5103028;28;20043;-78
2023/05/04 09:58:45;;;;;;;10.27;5.07;;;15.40;99.90;;;;;;5083232;28;20044;-81
2023/05/04 10:01:11;;;;;;;9.13;4.70;;;15.40;99.90;;;;;;5096775;28;20077;-82
2023/05/04 10:03:37;;;;;;;8.38;4.93;;;15.40;99.90;;;;;;5098707;28;20487;-78
2023/05/04 10:06:07;;;;;;;8.52;4.93;;;15.60;99.90;;;;;;5097716;28;20043;-80
2023/05/04 10:08:33;;;;;;;8.40;4.63;;;15.70;99.90;;;;;;5096373;28;20044;-80
2023/05/04 10:10:59;;;;;;;9.32;4.90;;;15.80;99.90;;;;;;5093445;28;20036;-81
2023/05/04 10:13:25;;;;;;;9.85;5.00;;;15.90;99.90;;;;;;5094380;28;20491;-79
2023/05/04 10:16:08;;;;;;;9.35;4.72;;;15.90;99.90;;;;;;5097196;28;20044;-79
2023/05/04 10:19:11;;;;;;;9.13;4.57;;;16.00;99.90;;;;;;5098816;28;20101;-79
2023/05/04 10:22:03;;;;;;;8.13;5.00;;;15.90;99.90;;;;;;5094264;28;20081;-80
2023/05/04 10:24:59;;;;;;;7.13;4.38;;;16.00;99.90;;;;;;5095607;28;20032;-79
2023/05/04 10:27:48;;;;;;;6.72;4.40;;;16.20;99.90;;;;;;5095951;28;20456;-80
2023/05/04 10:30:17;;;;;;;10.50;5.50;;;16.40;99.90;;;;;;5066035;28;20040;-78
2023/05/04 10:32:43;;;;;;;11.88;5.38;;;16.60;99.90;;;;;;5094112;28;20046;-77
2023/05/04 10:35:09;;;;;;;9.02;5.47;;;16.60;99.90;;;;;;5094481;28;20123;-79
2023/05/04 10:37:38;;;;;;;7.90;5.20;;;16.60;99.90;;;;;;5093834;28;20044;-79
2023/05/04 10:40:04;;;;;;;8.73;4.90;;;16.70;99.90;;;;;;5093688;28;20068;-79
2023/05/04 10:42:41;;;;;;;6.57;4.78;;;16.70;99.90;;;;;;5093898;28;20475;-80
2023/05/04 10:45:08;;;;;;;7.93;4.30;;;16.80;99.90;;;;;;5058577;28;20521;-79
2023/05/04 10:47:35;;;;;;;8.65;5.10;;;16.90;99.90;;;;;;5085027;28;20083;-80
2023/05/04 10:50:05;;;;;;;10.35;5.50;;;16.90;99.90;;;;;;5092672;28;20044;-80
2023/05/04 10:52:32;;;;;;;10.82;4.63;;;17.00;99.90;;;;;;5092969;28;20388;-79
2023/05/04 10:55:03;;;;;;;7.80;4.43;;;17.00;99.90;;;;;;5092792;28;20048;-80
2023/05/04 10:57:30;;;;;;;10.30;5.00;;;17.00;99.90;;;;;;5107217;28;20407;-79
2023/05/04 10:59:58;;;;;;;8.60;4.35;;;17.10;99.90;;;;;;5093005;28;20036;-79
2023/05/04 11:02:26;;;;;;;9.23;4.78;;;17.20;99.90;;;;;;5092616;28;20119;-79
2023/05/04 11:05:05;;;;;;;8.10;4.18;;;17.30;99.90;;;;;;5093464;28;20055;-79
2023/05/04 11:07:36;;;;;;;10.77;4.72;;;17.40;99.90;;;;;;5092852;28;20047;-79
2023/05/04 11:10:03;;;;;;;6.22;4.60;;;17.60;99.90;;;;;;5093124;28;20051;-78
2023/05/04 11:12:29;;;;;;;11.45;4.63;;;17.70;99.90;;;;;;5094290;28;20036;-79
2023/05/04 11:15:09;;;;;;;7.85;4.88;;;17.90;99.90;;;;;;5093503;28;20110;-79
2023/05/04 11:17:47;;;;;;;7.55;4.25;;;18.00;99.90;;;;;;5092546;28;20058;-79
2023/05/04 11:20:26;;;;;;;10.00;5.20;;;18.10;99.90;;;;;;5092726;28;20059;-76
2023/05/04 11:22:52;;;;;;;9.50;4.82;;;18.30;99.90;;;;;;5088674;28;20040;-81
2023/05/04 11:25:26;;;;;;;8.52;4.93;;;18.30;99.90;;;;;;5081942;28;20032;-79
2023/05/04 11:27:52;;;;;;;8.63;4.70;;;18.30;99.90;;;;;;5093462;28;20048;-81
2023/05/04 11:30:18;;;;;;;6.72;4.38;;;18.30;99.90;;;;;;5094570;28;20036;-79
2023/05/04 11:32:48;;;;;;;7.72;4.75;;;18.50;99.90;;;;;;5074600;28;20058;-77
2023/05/04 11:35:16;;;;;;;5.57;4.40;;;18.50;99.90;;;;;;5091440;28;20051;-77
2023/05/04 11:37:43;;;;;;;8.57;4.70;;;18.50;99.90;;;;;;5090903;28;20078;-79
2023/05/04 11:40:17;;;;;;;7.88;4.57;;;18.60;99.90;;;;;;5091069;28;20563;-77
2023/05/04 11:42:42;;;;;;;;;;;18.70;99.90;;;;;;5091372;28;20036;-79
2023/05/04 11:45:10;;;;;;;6.93;4.50;;;18.80;99.90;;;;;;5091632;28;20394;-79
2023/05/04 11:47:36;;;;;;;8.32;4.80;;;18.90;99.90;;;;;;5091066;28;20039;-80
2023/05/04 11:50:04;;;;;;;8.98;4.60;;;19.10;99.90;;;;;;5090974;28;20118;-78
2023/05/04 11:52:32;;;;;;;7.30;4.50;;;19.30;99.90;;;;;;5091665;28;20036;-79
2023/05/04 11:54:57;;;;;;;7.47;4.78;;;19.40;99.90;;;;;;5091026;28;20096;-79
2023/05/04 11:57:23;;;;;;;6.65;4.75;;;19.60;99.90;;;;;;5105131;28;20032;-80
2023/05/04 11:59:50;;;;;;;8.85;4.90;;;19.70;99.90;;;;;;5091100;28;20051;-77
2023/05/04 12:02:16;;;;;;;8.02;4.47;;;19.90;99.90;;;;;;5090771;28;20043;-78
2023/05/04 12:04:42;;;;;;;10.00;4.60;;;20.00;99.90;;;;;;5092741;28;20075;-78
2023/05/04 12:07:07;;;;;;;7.60;4.60;;;20.20;99.90;;;;;;5091008;28;20431;-78
2023/05/04 12:09:46;;;;;;;7.75;4.68;;;20.30;99.90;;;;;;5091433;28;20040;-78
2023/05/04 12:12:15;;;;;;;8.52;4.00;;;20.50;99.90;;;;;;5091689;28;20044;-79
2023/05/04 12:14:48;;;;;;;7.03;4.20;;;20.60;99.90;;;;;;5091063;28;20040;-77
2023/05/04 12:17:14;;;;;;;7.43;4.55;;;20.70;99.90;;;;;;5090501;28;20051;-80
2023/05/04 12:19:50;;;;;;;7.35;4.15;;;20.80;99.90;;;;;;5091498;28;20040;-78
2023/05/04 12:22:16;;;;;;;7.85;4.35;;;20.80;99.70;;;;;;5091105;28;20123;-79
2023/05/04 12:24:42;;;;;;;12.65;4.90;;;20.90;99.90;;;;;;5091160;28;20032;-78
2023/05/04 12:27:13;;;;;;;5.45;3.70;;;21.00;99.90;;;;;;5091289;28;20066;-79
2023/05/04 12:29:38;;;;;;;6.75;4.47;;;20.90;99.30;;;;;;5091302;28;20068;-77
2023/05/04 12:32:04;;;;;;;8.20;4.03;;;21.00;98.70;;;;;;5090761;28;20044;-77
2023/05/04 12:34:30;;;;;;;7.80;4.63;;;21.00;98.50;;;;;;5090069;28;20605;-80
2023/05/04 12:36:55;;;;;;;6.72;4.30;;;21.00;97.70;;;;;;5090884;28;20119;-79
2023/05/04 12:39:21;;;;;;;9.57;5.15;;;21.00;97.70;;;;;;5090498;28;20496;-79
2023/05/04 12:41:47;;;;;;;9.63;4.70;;;21.00;97.90;;;;;;5055505;28;20040;-79
2023/05/04 12:44:13;;;;;;;7.00;4.30;;;21.10;98.30;;;;;;5070466;28;20045;-77
2023/05/04 12:46:39;;;;;;;7.63;4.43;;;21.20;97.50;;;;;;5073357;28;20138;-76